sensor_id;sensor_type;location;lat;lon;timestamp;pressure;altitude;pressure_sealevel;temperature;humidity
34103;BME280;20381;54.498;18.206;2022-07-03T00:00:33;100427.63;;;9.52;74.81
34103;BME280;20381;54.498;18.206;2022-07-03T00:03:01;100426.81;;;9.50;74.93
34103;BME280;20381;54.498;18.206;2022-07-03T00:05:28;100428.99;;;9.49;74.99
34103;BME280;20381;54.498;18.206;2022-07-03T00:07:55;100422.09;;;9.48;75.18
34103;BME280;20381;54.498;18.206;2022-07-03T00:10:21;100429.06;;;9.48;75.33
34103;BME280;20381;54.498;18.206;2022-07-03T00:12:48;100423.00;;;9.47;75.45
34103;BME280;20381;54.498;18.206;2022-07-03T00:15:15;100417.82;;;9.46;75.55
34103;BME280;20381;54.498;18.206;2022-07-03T00:17:42;100422.90;;;9.50;75.43
34103;BME280;20381;54.498;18.206;2022-07-03T00:20:09;100420.39;;;9.47;75.48
34103;BME280;20381;54.498;18.206;2022-07-03T00:22:37;100419.68;;;9.42;75.55
34103;BME280;20381;54.498;18.206;2022-07-03T00:25:10;100414.56;;;9.39;75.77
34103;BME280;20381;54.498;18.206;2022-07-03T00:27:39;100425.09;;;9.36;75.69
34103;BME280;20381;54.498;18.206;2022-07-03T00:30:06;100415.12;;;9.35;75.73
34103;BME280;20381;54.498;18.206;2022-07-03T00:32:38;100414.14;;;9.38;76.00
34103;BME280;20381;54.498;18.206;2022-07-03T00:35:06;100422.28;;;9.42;76.10
34103;BME280;20381;54.498;18.206;2022-07-03T00:37:34;100424.08;;;9.40;75.84
34103;BME280;20381;54.498;18.206;2022-07-03T00:40:01;100420.36;;;9.34;75.86
34103;BME280;20381;54.498;18.206;2022-07-03T00:42:30;100422.64;;;9.30;76.00
34103;BME280;20381;54.498;18.206;2022-07-03T00:44:59;100419.97;;;9.33;76.42
34103;BME280;20381;54.498;18.206;2022-07-03T00:47:27;100416.26;;;9.40;76.59
34103;BME280;20381;54.498;18.206;2022-07-03T00:49:56;100415.21;;;9.46;76.61
34103;BME280;20381;54.498;18.206;2022-07-03T00:52:23;100409.44;;;9.49;76.73
34103;BME280;20381;54.498;18.206;2022-07-03T00:54:57;100406.77;;;9.52;76.81
34103;BME280;20381;54.498;18.206;2022-07-03T00:57:22;100409.87;;;9.50;76.90
34103;BME280;20381;54.498;18.206;2022-07-03T00:59:51;100405.89;;;9.52;76.89
34103;BME280;20381;54.498;18.206;2022-07-03T01:02:34;100408.11;;;9.51;76.91
34103;BME280;20381;54.498;18.206;2022-07-03T01:08:33;100409.25;;;9.42;76.92
34103;BME280;20381;54.498;18.206;2022-07-03T01:11:21;100403.81;;;9.35;76.95
34103;BME280;20381;54.498;18.206;2022-07-03T01:19:38;100407.50;;;9.14;77.17
34103;BME280;20381;54.498;18.206;2022-07-03T01:22:32;100399.87;;;9.08;77.63
34103;BME280;20381;54.498;18.206;2022-07-03T01:25:15;100402.51;;;9.07;77.45
34103;BME280;20381;54.498;18.206;2022-07-03T01:30:31;100391.62;;;8.94;77.73
34103;BME280;20381;54.498;18.206;2022-07-03T01:33:03;100385.59;;;8.92;77.94
34103;BME280;20381;54.498;18.206;2022-07-03T01:35:46;100383.58;;;8.87;77.88
34103;BME280;20381;54.498;18.206;2022-07-03T01:38:10;100384.06;;;8.85;78.00
34103;BME280;20381;54.498;18.206;2022-07-03T01:40:41;100386.66;;;8.85;78.13
34103;BME280;20381;54.498;18.206;2022-07-03T01:43:11;100384.06;;;8.85;78.25
34103;BME280;20381;54.498;18.206;2022-07-03T01:45:46;100383.18;;;8.86;78.47
34103;BME280;20381;54.498;18.206;2022-07-03T01:48:14;100384.88;;;8.87;78.42
34103;BME280;20381;54.498;18.206;2022-07-03T01:50:41;100378.85;;;8.85;78.50
34103;BME280;20381;54.498;18.206;2022-07-03T01:53:10;100382.37;;;8.84;78.61
34103;BME280;20381;54.498;18.206;2022-07-03T01:55:39;100382.46;;;8.81;78.55
34103;BME280;20381;54.498;18.206;2022-07-03T01:58:08;100372.14;;;8.78;78.59
34103;BME280;20381;54.498;18.206;2022-07-03T02:00:44;100377.34;;;8.78;78.78
34103;BME280;20381;54.498;18.206;2022-07-03T02:03:19;100371.32;;;8.76;78.79
34103;BME280;20381;54.498;18.206;2022-07-03T02:05:46;100370.93;;;8.74;78.85
34103;BME280;20381;54.498;18.206;2022-07-03T02:13:52;100367.02;;;8.74;79.10
34103;BME280;20381;54.498;18.206;2022-07-03T02:16:25;100366.11;;;8.76;79.07
34103;BME280;20381;54.498;18.206;2022-07-03T02:18:58;100372.98;;;8.78;79.28
34103;BME280;20381;54.498;18.206;2022-07-03T02:21:32;100365.14;;;8.80;79.35
34103;BME280;20381;54.498;18.206;2022-07-03T02:26:54;100369.41;;;8.82;79.50
34103;BME280;20381;54.498;18.206;2022-07-03T02:29:31;100363.20;;;8.86;79.63
34103;BME280;20381;54.498;18.206;2022-07-03T02:32:03;100358.64;;;8.93;80.04
34103;BME280;20381;54.498;18.206;2022-07-03T02:34:31;100364.28;;;9.07;80.23
34103;BME280;20381;54.498;18.206;2022-07-03T02:37:17;100363.11;;;9.17;80.31
34103;BME280;20381;54.498;18.206;2022-07-03T02:42:38;100359.11;;;9.60;81.26
34103;BME280;20381;54.498;18.206;2022-07-03T02:45:12;100357.10;;;9.69;80.68
34103;BME280;20381;54.498;18.206;2022-07-03T02:48:07;100358.83;;;9.70;80.31
34103;BME280;20381;54.498;18.206;2022-07-03T02:50:36;100360.34;;;10.27;81.31
34103;BME280;20381;54.498;18.206;2022-07-03T02:53:07;100357.20;;;11.54;81.04
34103;BME280;20381;54.498;18.206;2022-07-03T02:55:45;100350.78;;;12.63;80.40
34103;BME280;20381;54.498;18.206;2022-07-03T03:04:21;100337.19;;;16.48;79.42
34103;BME280;20381;54.498;18.206;2022-07-03T03:07:05;100340.52;;;17.54;78.00
34103;BME280;20381;54.498;18.206;2022-07-03T03:09:39;100334.38;;;18.32;77.40
34103;BME280;20381;54.498;18.206;2022-07-03T03:12:06;100328.30;;;19.29;77.38
34103;BME280;20381;54.498;18.206;2022-07-03T03:14:48;100318.69;;;20.21;77.17
34103;BME280;20381;54.498;18.206;2022-07-03T03:17:23;100316.25;;;20.86;76.12
34103;BME280;20381;54.498;18.206;2022-07-03T03:19:52;100319.39;;;21.40;75.44
34103;BME280;20381;54.498;18.206;2022-07-03T03:25:01;100310.60;;;22.12;73.14
34103;BME280;20381;54.498;18.206;2022-07-03T03:27:29;100316.31;;;22.28;71.76
34103;BME280;20381;54.498;18.206;2022-07-03T03:29:56;100311.41;;;22.24;70.77
34103;BME280;20381;54.498;18.206;2022-07-03T03:32:24;100314.81;;;22.15;70.57
34103;BME280;20381;54.498;18.206;2022-07-03T03:34:52;100312.20;;;22.30;71.03
34103;BME280;20381;54.498;18.206;2022-07-03T03:37:19;100316.62;;;22.85;71.12
34103;BME280;20381;54.498;18.206;2022-07-03T03:39:45;100304.86;;;23.52;70.38
34103;BME280;20381;54.498;18.206;2022-07-03T03:42:13;100296.14;;;24.12;69.74
34103;BME280;20381;54.498;18.206;2022-07-03T03:44:39;100291.59;;;24.73;69.83
34103;BME280;20381;54.498;18.206;2022-07-03T03:47:07;100294.27;;;25.41;69.97
34103;BME280;20381;54.498;18.206;2022-07-03T03:49:34;100295.48;;;26.21;69.13
34103;BME280;20381;54.498;18.206;2022-07-03T03:52:01;100297.16;;;26.52;68.01
34103;BME280;20381;54.498;18.206;2022-07-03T03:54:28;100293.70;;;26.72;67.17
34103;BME280;20381;54.498;18.206;2022-07-03T03:56:55;100289.76;;;27.05;66.54
34103;BME280;20381;54.498;18.206;2022-07-03T03:59:22;100294.80;;;27.12;65.54
34103;BME280;20381;54.498;18.206;2022-07-03T04:01:49;100290.50;;;27.31;65.32
34103;BME280;20381;54.498;18.206;2022-07-03T04:04:15;100288.80;;;27.55;64.87
34103;BME280;20381;54.498;18.206;2022-07-03T04:06:44;100286.35;;;28.17;64.50
34103;BME280;20381;54.498;18.206;2022-07-03T04:09:11;100283.97;;;28.70;63.28
34103;BME280;20381;54.498;18.206;2022-07-03T04:11:38;100286.97;;;29.06;62.97
34103;BME280;20381;54.498;18.206;2022-07-03T04:14:04;100281.47;;;29.22;61.77
34103;BME280;20381;54.498;18.206;2022-07-03T04:16:33;100281.84;;;29.15;60.81
34103;BME280;20381;54.498;18.206;2022-07-03T04:19:00;100281.42;;;29.27;60.66
34103;BME280;20381;54.498;18.206;2022-07-03T04:21:27;100280.07;;;29.50;60.24
34103;BME280;20381;54.498;18.206;2022-07-03T04:23:54;100286.84;;;29.83;59.89
34103;BME280;20381;54.498;18.206;2022-07-03T04:26:21;100277.81;;;29.91;58.94
34103;BME280;20381;54.498;18.206;2022-07-03T04:28:48;100280.05;;;30.02;58.20
34103;BME280;20381;54.498;18.206;2022-07-03T04:31:14;100278.39;;;30.01;57.34
34103;BME280;20381;54.498;18.206;2022-07-03T04:33:41;100272.13;;;29.90;56.64
34103;BME280;20381;54.498;18.206;2022-07-03T04:36:08;100260.58;;;30.00;56.45
34103;BME280;20381;54.498;18.206;2022-07-03T04:38:35;100272.93;;;30.39;55.83
34103;BME280;20381;54.498;18.206;2022-07-03T04:41:01;100268.34;;;30.54;55.14
34103;BME280;20381;54.498;18.206;2022-07-03T04:43:28;100274.69;;;30.83;54.66
34103;BME280;20381;54.498;18.206;2022-07-03T04:45:55;100274.45;;;31.21;54.19
34103;BME280;20381;54.498;18.206;2022-07-03T04:48:21;100269.50;;;31.57;53.84
34103;BME280;20381;54.498;18.206;2022-07-03T04:50:48;100273.25;;;31.91;53.39
34103;BME280;20381;54.498;18.206;2022-07-03T04:53:15;100269.50;;;32.26;53.10
34103;BME280;20381;54.498;18.206;2022-07-03T04:55:41;100274.19;;;32.46;52.14
34103;BME280;20381;54.498;18.206;2022-07-03T04:58:08;100270.12;;;32.63;51.90
34103;BME280;20381;54.498;18.206;2022-07-03T05:00:35;100274.59;;;33.04;51.42
34103;BME280;20381;54.498;18.206;2022-07-03T05:03:02;100277.81;;;33.10;50.83
34103;BME280;20381;54.498;18.206;2022-07-03T05:05:29;100270.87;;;33.32;50.73
34103;BME280;20381;54.498;18.206;2022-07-03T05:07:55;100264.11;;;33.45;49.71
34103;BME280;20381;54.498;18.206;2022-07-03T05:10:22;100266.63;;;33.53;49.18
34103;BME280;20381;54.498;18.206;2022-07-03T05:12:49;100271.62;;;33.70;48.58
34103;BME280;20381;54.498;18.206;2022-07-03T05:15:16;100267.43;;;33.74;48.18
34103;BME280;20381;54.498;18.206;2022-07-03T05:17:43;100264.94;;;33.46;47.65
34103;BME280;20381;54.498;18.206;2022-07-03T05:20:11;100267.34;;;33.45;47.05
34103;BME280;20381;54.498;18.206;2022-07-03T05:22:55;100274.31;;;33.36;46.44
34103;BME280;20381;54.498;18.206;2022-07-03T05:25:23;100277.01;;;33.43;46.08
34103;BME280;20381;54.498;18.206;2022-07-03T05:27:51;100270.23;;;33.30;45.56
34103;BME280;20381;54.498;18.206;2022-07-03T05:30:21;100269.08;;;33.21;45.30
34103;BME280;20381;54.498;18.206;2022-07-03T05:32:50;100264.64;;;33.25;45.12
34103;BME280;20381;54.498;18.206;2022-07-03T05:35:17;100266.81;;;33.32;44.87
34103;BME280;20381;54.498;18.206;2022-07-03T05:37:44;100266.39;;;33.35;44.58
34103;BME280;20381;54.498;18.206;2022-07-03T05:40:11;100263.69;;;33.48;44.34
34103;BME280;20381;54.498;18.206;2022-07-03T05:42:38;100263.59;;;33.65;43.62
34103;BME280;20381;54.498;18.206;2022-07-03T05:45:06;100266.21;;;33.56;43.34
34103;BME280;20381;54.498;18.206;2022-07-03T05:47:34;100263.50;;;33.56;43.21
34103;BME280;20381;54.498;18.206;2022-07-03T05:50:00;100267.66;;;33.52;42.73
34103;BME280;20381;54.498;18.206;2022-07-03T05:52:27;100267.23;;;33.42;42.60
34103;BME280;20381;54.498;18.206;2022-07-03T05:54:54;100258.91;;;33.50;42.20
34103;BME280;20381;54.498;18.206;2022-07-03T05:57:20;100260.48;;;33.62;42.50
34103;BME280;20381;54.498;18.206;2022-07-03T05:59:47;100261.99;;;33.87;41.89
34103;BME280;20381;54.498;18.206;2022-07-03T06:02:14;100263.05;;;33.79;41.18
34103;BME280;20381;54.498;18.206;2022-07-03T06:04:41;100258.67;;;33.52;41.12
34103;BME280;20381;54.498;18.206;2022-07-03T06:07:07;100266.38;;;33.21;40.71
34103;BME280;20381;54.498;18.206;2022-07-03T06:09:34;100267.16;;;32.89;40.46
34103;BME280;20381;54.498;18.206;2022-07-03T06:12:01;100264.78;;;32.59;40.54
34103;BME280;20381;54.498;18.206;2022-07-03T06:14:28;100262.59;;;32.52;40.26
34103;BME280;20381;54.498;18.206;2022-07-03T06:16:54;100262.49;;;32.56;40.18
34103;BME280;20381;54.498;18.206;2022-07-03T06:19:21;100262.20;;;32.68;39.93
34103;BME280;20381;54.498;18.206;2022-07-03T06:21:48;100257.55;;;32.73;39.74
34103;BME280;20381;54.498;18.206;2022-07-03T06:24:14;100255.89;;;32.79;39.54
34103;BME280;20381;54.498;18.206;2022-07-03T06:26:41;100258.59;;;32.79;39.32
34103;BME280;20381;54.498;18.206;2022-07-03T06:29:08;100256.67;;;32.59;38.46
34103;BME280;20381;54.498;18.206;2022-07-03T06:31:37;100257.11;;;31.97;38.26
34103;BME280;20381;54.498;18.206;2022-07-03T06:34:03;100259.51;;;31.68;38.40
34103;BME280;20381;54.498;18.206;2022-07-03T06:36:30;100262.82;;;31.70;38.33
34103;BME280;20381;54.498;18.206;2022-07-03T06:38:57;100262.05;;;31.76;38.42
34103;BME280;20381;54.498;18.206;2022-07-03T06:41:23;100264.79;;;31.83;38.25
34103;BME280;20381;54.498;18.206;2022-07-03T06:43:51;100260.72;;;32.11;38.18
34103;BME280;20381;54.498;18.206;2022-07-03T06:46:17;100256.98;;;32.36;38.19
34103;BME280;20381;54.498;18.206;2022-07-03T06:48:44;100258.69;;;32.44;37.74
34103;BME280;20381;54.498;18.206;2022-07-03T06:51:11;100261.78;;;31.82;36.68
34103;BME280;20381;54.498;18.206;2022-07-03T06:53:38;100259.05;;;31.15;36.75
34103;BME280;20381;54.498;18.206;2022-07-03T06:56:04;100251.05;;;31.28;36.95
34103;BME280;20381;54.498;18.206;2022-07-03T06:58:31;100247.09;;;31.24;36.68
34103;BME280;20381;54.498;18.206;2022-07-03T07:00:58;100252.48;;;31.24;36.63
34103;BME280;20381;54.498;18.206;2022-07-03T07:03:25;100250.95;;;31.36;37.02
34103;BME280;20381;54.498;18.206;2022-07-03T07:05:51;100257.35;;;31.57;36.92
34103;BME280;20381;54.498;18.206;2022-07-03T07:08:18;100255.05;;;31.54;36.73
34103;BME280;20381;54.498;18.206;2022-07-03T07:10:45;100251.14;;;31.46;36.65
34103;BME280;20381;54.498;18.206;2022-07-03T07:13:11;100249.00;;;31.52;36.39
34103;BME280;20381;54.498;18.206;2022-07-03T07:15:38;100248.50;;;31.41;36.33
34103;BME280;20381;54.498;18.206;2022-07-03T07:18:05;100241.44;;;31.19;36.37
34103;BME280;20381;54.498;18.206;2022-07-03T07:20:32;100240.79;;;31.17;36.05
34103;BME280;20381;54.498;18.206;2022-07-03T07:22:59;100245.36;;;31.06;35.88
34103;BME280;20381;54.498;18.206;2022-07-03T07:25:26;100248.25;;;30.83;35.54
34103;BME280;20381;54.498;18.206;2022-07-03T07:27:53;100246.91;;;30.57;35.75
34103;BME280;20381;54.498;18.206;2022-07-03T07:30:19;100245.72;;;30.34;35.64
34103;BME280;20381;54.498;18.206;2022-07-03T07:32:46;100254.59;;;29.94;35.16
34103;BME280;20381;54.498;18.206;2022-07-03T07:35:16;100251.23;;;29.58;34.88
34103;BME280;20381;54.498;18.206;2022-07-03T07:37:44;100246.30;;;29.01;35.17
34103;BME280;20381;54.498;18.206;2022-07-03T07:40:12;100245.31;;;28.40;34.96
34103;BME280;20381;54.498;18.206;2022-07-03T07:42:38;100242.16;;;27.88;35.07
34103;BME280;20381;54.498;18.206;2022-07-03T07:45:06;100249.75;;;27.64;35.37
34103;BME280;20381;54.498;18.206;2022-07-03T07:47:34;100247.59;;;27.48;35.54
34103;BME280;20381;54.498;18.206;2022-07-03T07:50:02;100251.27;;;27.30;35.17
34103;BME280;20381;54.498;18.206;2022-07-03T07:52:29;100246.36;;;26.85;35.45
34103;BME280;20381;54.498;18.206;2022-07-03T07:54:56;100254.81;;;26.51;35.68
34103;BME280;20381;54.498;18.206;2022-07-03T08:00:12;100242.53;;;25.76;35.24
34103;BME280;20381;54.498;18.206;2022-07-03T08:02:40;100248.45;;;25.36;35.68
34103;BME280;20381;54.498;18.206;2022-07-03T08:05:26;100249.63;;;25.15;35.52
34103;BME280;20381;54.498;18.206;2022-07-03T08:08:09;100247.39;;;24.93;35.55
34103;BME280;20381;54.498;18.206;2022-07-03T08:10:38;100243.95;;;24.83;35.84
34103;BME280;20381;54.498;18.206;2022-07-03T08:13:04;100244.36;;;24.92;36.34
34103;BME280;20381;54.498;18.206;2022-07-03T08:15:31;100240.81;;;25.05;36.83
34103;BME280;20381;54.498;18.206;2022-07-03T08:17:59;100243.30;;;25.20;36.86
34103;BME280;20381;54.498;18.206;2022-07-03T08:20:25;100232.33;;;25.23;37.26
34103;BME280;20381;54.498;18.206;2022-07-03T08:22:52;100232.03;;;25.31;37.64
34103;BME280;20381;54.498;18.206;2022-07-03T08:25:19;100236.38;;;25.14;37.10
34103;BME280;20381;54.498;18.206;2022-07-03T08:27:45;100232.64;;;24.89;37.36
34103;BME280;20381;54.498;18.206;2022-07-03T08:30:12;100229.33;;;24.91;37.68
34103;BME280;20381;54.498;18.206;2022-07-03T08:32:41;100229.95;;;24.85;37.35
34103;BME280;20381;54.498;18.206;2022-07-03T08:35:08;100225.14;;;24.70;38.07
34103;BME280;20381;54.498;18.206;2022-07-03T08:37:35;100220.05;;;24.63;38.32
34103;BME280;20381;54.498;18.206;2022-07-03T08:40:03;100220.27;;;24.52;38.50
34103;BME280;20381;54.498;18.206;2022-07-03T08:42:30;100224.30;;;24.56;38.55
34103;BME280;20381;54.498;18.206;2022-07-03T08:44:56;100221.97;;;24.71;38.89
34103;BME280;20381;54.498;18.206;2022-07-03T08:47:24;100220.22;;;24.79;39.32
34103;BME280;20381;54.498;18.206;2022-07-03T08:49:53;100221.39;;;24.99;39.55
34103;BME280;20381;54.498;18.206;2022-07-03T08:52:22;100215.87;;;25.14;39.90
34103;BME280;20381;54.498;18.206;2022-07-03T08:54:48;100220.72;;;25.37;40.05
34103;BME280;20381;54.498;18.206;2022-07-03T08:57:16;100223.63;;;25.21;39.86
34103;BME280;20381;54.498;18.206;2022-07-03T08:59:43;100219.50;;;24.95;39.46
34103;BME280;20381;54.498;18.206;2022-07-03T09:02:12;100221.80;;;24.72;39.64
34103;BME280;20381;54.498;18.206;2022-07-03T09:04:38;100217.84;;;24.94;40.67
34103;BME280;20381;54.498;18.206;2022-07-03T09:07:06;100219.99;;;25.27;40.37
34103;BME280;20381;54.498;18.206;2022-07-03T09:09:34;100211.41;;;25.41;40.66
34103;BME280;20381;54.498;18.206;2022-07-03T09:12:00;100213.87;;;25.60;40.92
34103;BME280;20381;54.498;18.206;2022-07-03T09:14:26;100208.77;;;25.75;40.57
34103;BME280;20381;54.498;18.206;2022-07-03T09:16:53;100212.92;;;25.74;40.67
34103;BME280;20381;54.498;18.206;2022-07-03T09:19:39;100213.02;;;25.60;40.77
34103;BME280;20381;54.498;18.206;2022-07-03T09:24:48;100205.31;;;25.31;40.36
34103;BME280;20381;54.498;18.206;2022-07-03T09:27:16;100202.95;;;25.28;40.63
34103;BME280;20381;54.498;18.206;2022-07-03T09:29:51;100198.86;;;25.15;40.57
34103;BME280;20381;54.498;18.206;2022-07-03T09:35:21;100197.83;;;24.76;40.86
34103;BME280;20381;54.498;18.206;2022-07-03T09:37:52;100192.32;;;24.60;40.80
34103;BME280;20381;54.498;18.206;2022-07-03T09:40:28;100187.56;;;24.68;41.23
34103;BME280;20381;54.498;18.206;2022-07-03T09:43:15;100191.94;;;24.91;41.50
34103;BME280;20381;54.498;18.206;2022-07-03T09:46:03;100192.27;;;24.92;41.38
34103;BME280;20381;54.498;18.206;2022-07-03T09:48:24;100194.32;;;24.98;41.33
34103;BME280;20381;54.498;18.206;2022-07-03T09:51:08;100189.29;;;24.95;41.59
34103;BME280;20381;54.498;18.206;2022-07-03T09:56:24;100181.57;;;25.28;41.95
34103;BME280;20381;54.498;18.206;2022-07-03T10:01:34;100174.09;;;25.13;42.09
34103;BME280;20381;54.498;18.206;2022-07-03T10:06:50;100175.58;;;25.30;42.05
34103;BME280;20381;54.498;18.206;2022-07-03T10:09:22;100166.94;;;25.40;42.18
34103;BME280;20381;54.498;18.206;2022-07-03T10:11:50;100162.80;;;25.45;41.50
34103;BME280;20381;54.498;18.206;2022-07-03T10:14:18;100162.11;;;25.17;41.39
34103;BME280;20381;54.498;18.206;2022-07-03T10:16:46;100162.71;;;25.11;41.82
34103;BME280;20381;54.498;18.206;2022-07-03T10:19:20;100164.39;;;25.30;42.01
34103;BME280;20381;54.498;18.206;2022-07-03T10:21:53;100161.28;;;25.43;41.58
34103;BME280;20381;54.498;18.206;2022-07-03T10:24:19;100167.41;;;25.57;41.69
34103;BME280;20381;54.498;18.206;2022-07-03T10:26:48;100156.72;;;25.61;41.77
34103;BME280;20381;54.498;18.206;2022-07-03T10:29:15;100151.69;;;25.58;41.55
34103;BME280;20381;54.498;18.206;2022-07-03T10:31:46;100151.88;;;25.65;41.92
34103;BME280;20381;54.498;18.206;2022-07-03T10:34:11;100151.78;;;25.79;42.04
34103;BME280;20381;54.498;18.206;2022-07-03T10:36:37;100149.25;;;25.73;41.42
34103;BME280;20381;54.498;18.206;2022-07-03T10:39:05;100152.33;;;25.52;41.27
34103;BME280;20381;54.498;18.206;2022-07-03T10:41:40;100149.61;;;25.48;41.14
34103;BME280;20381;54.498;18.206;2022-07-03T10:44:24;100138.96;;;25.52;41.53
34103;BME280;20381;54.498;18.206;2022-07-03T10:47:35;100140.03;;;25.67;41.32
34103;BME280;20381;54.498;18.206;2022-07-03T10:50:00;100134.13;;;25.90;41.43
34103;BME280;20381;54.498;18.206;2022-07-03T10:52:28;100133.87;;;26.05;41.40
34103;BME280;20381;54.498;18.206;2022-07-03T10:54:56;100123.54;;;26.23;41.40
34103;BME280;20381;54.498;18.206;2022-07-03T10:57:23;100128.23;;;26.29;41.22
34103;BME280;20381;54.498;18.206;2022-07-03T11:02:33;100128.91;;;26.31;41.07
34103;BME280;20381;54.498;18.206;2022-07-03T11:05:06;100127.55;;;26.27;41.14
34103;BME280;20381;54.498;18.206;2022-07-03T11:07:34;100132.50;;;25.97;40.40
34103;BME280;20381;54.498;18.206;2022-07-03T11:15:33;100124.70;;;25.82;40.38
34103;BME280;20381;54.498;18.206;2022-07-03T11:25:48;100118.17;;;25.42;39.01
34103;BME280;20381;54.498;18.206;2022-07-03T11:36:24;100106.59;;;25.63;39.99
34103;BME280;20381;54.498;18.206;2022-07-03T11:44:22;100103.09;;;26.05;39.96
34103;BME280;20381;54.498;18.206;2022-07-03T11:46:49;100104.45;;;26.18;40.20
34103;BME280;20381;54.498;18.206;2022-07-03T11:49:17;100098.78;;;26.17;39.81
34103;BME280;20381;54.498;18.206;2022-07-03T11:51:59;100094.06;;;26.02;40.06
34103;BME280;20381;54.498;18.206;2022-07-03T11:54:29;100094.08;;;26.15;40.32
34103;BME280;20381;54.498;18.206;2022-07-03T11:56:57;100092.12;;;26.33;40.36
34103;BME280;20381;54.498;18.206;2022-07-03T11:59:26;100085.76;;;26.42;40.24
34103;BME280;20381;54.498;18.206;2022-07-03T12:01:53;100085.08;;;26.40;39.92
34103;BME280;20381;54.498;18.206;2022-07-03T12:04:23;100076.71;;;26.31;39.99
34103;BME280;20381;54.498;18.206;2022-07-03T12:06:50;100079.38;;;26.35;40.48
34103;BME280;20381;54.498;18.206;2022-07-03T12:09:24;100074.71;;;26.45;40.17
34103;BME280;20381;54.498;18.206;2022-07-03T12:17:18;100071.36;;;26.31;39.82
34103;BME280;20381;54.498;18.206;2022-07-03T12:19:59;100062.30;;;26.24;39.50
34103;BME280;20381;54.498;18.206;2022-07-03T12:25:01;100062.18;;;25.79;39.37
34103;BME280;20381;54.498;18.206;2022-07-03T12:27:32;100059.00;;;25.75;39.34
34103;BME280;20381;54.498;18.206;2022-07-03T12:30:01;100047.63;;;25.69;38.80
34103;BME280;20381;54.498;18.206;2022-07-03T12:32:28;100049.91;;;25.52;39.11
34103;BME280;20381;54.498;18.206;2022-07-03T12:34:55;100045.39;;;25.52;39.14
34103;BME280;20381;54.498;18.206;2022-07-03T12:37:32;100042.03;;;25.46;39.19
34103;BME280;20381;54.498;18.206;2022-07-03T12:40:05;100042.53;;;25.50;38.97
34103;BME280;20381;54.498;18.206;2022-07-03T12:42:41;100044.27;;;25.29;38.86
34103;BME280;20381;54.498;18.206;2022-07-03T12:45:15;100039.06;;;25.19;38.94
34103;BME280;20381;54.498;18.206;2022-07-03T12:47:43;100037.41;;;25.26;39.67
34103;BME280;20381;54.498;18.206;2022-07-03T12:50:10;100029.97;;;25.38;39.32
34103;BME280;20381;54.498;18.206;2022-07-03T12:52:50;100026.53;;;25.19;39.06
34103;BME280;20381;54.498;18.206;2022-07-03T12:55:29;100029.48;;;25.12;39.24
34103;BME280;20381;54.498;18.206;2022-07-03T12:58:15;100027.21;;;25.21;39.87
34103;BME280;20381;54.498;18.206;2022-07-03T13:01:01;100024.27;;;25.37;39.62
34103;BME280;20381;54.498;18.206;2022-07-03T13:03:31;100019.64;;;25.51;39.72
34103;BME280;20381;54.498;18.206;2022-07-03T13:06:02;100015.83;;;25.62;40.01
34103;BME280;20381;54.498;18.206;2022-07-03T13:08:30;100019.77;;;25.84;39.87
34103;BME280;20381;54.498;18.206;2022-07-03T13:10:57;100012.45;;;25.94;40.09
34103;BME280;20381;54.498;18.206;2022-07-03T13:13:25;100007.11;;;26.15;39.95
34103;BME280;20381;54.498;18.206;2022-07-03T13:15:52;100006.43;;;26.00;39.75
34103;BME280;20381;54.498;18.206;2022-07-03T13:18:18;100010.36;;;25.72;39.68
34103;BME280;20381;54.498;18.206;2022-07-03T13:20:45;100003.89;;;25.40;40.24
34103;BME280;20381;54.498;18.206;2022-07-03T13:23:11;100004.94;;;25.13;40.93
34103;BME280;20381;54.498;18.206;2022-07-03T13:25:38;99997.55;;;24.76;41.29
34103;BME280;20381;54.498;18.206;2022-07-03T13:28:06;99990.33;;;24.47;41.42
34103;BME280;20381;54.498;18.206;2022-07-03T13:30:34;99993.21;;;24.35;42.34
34103;BME280;20381;54.498;18.206;2022-07-03T13:33:01;99994.46;;;24.23;42.81
34103;BME280;20381;54.498;18.206;2022-07-03T13:35:28;99996.44;;;24.21;42.68
34103;BME280;20381;54.498;18.206;2022-07-03T13:37:55;99997.12;;;24.23;43.44
34103;BME280;20381;54.498;18.206;2022-07-03T13:40:21;99997.19;;;24.13;43.31
34103;BME280;20381;54.498;18.206;2022-07-03T13:42:48;99992.64;;;24.06;43.93
34103;BME280;20381;54.498;18.206;2022-07-03T13:45:15;99998.26;;;24.03;44.06
34103;BME280;20381;54.498;18.206;2022-07-03T13:47:41;99992.26;;;24.01;43.94
34103;BME280;20381;54.498;18.206;2022-07-03T13:50:08;99987.55;;;23.95;44.74
34103;BME280;20381;54.498;18.206;2022-07-03T13:52:35;99979.89;;;24.00;44.98
34103;BME280;20381;54.498;18.206;2022-07-03T13:55:02;99985.92;;;24.02;44.87
34103;BME280;20381;54.498;18.206;2022-07-03T13:57:32;99996.52;;;23.94;44.89
34103;BME280;20381;54.498;18.206;2022-07-03T13:59:58;100003.01;;;24.09;45.20
34103;BME280;20381;54.498;18.206;2022-07-03T14:02:27;99999.90;;;24.00;44.94
34103;BME280;20381;54.498;18.206;2022-07-03T14:04:55;100003.23;;;23.98;45.15
34103;BME280;20381;54.498;18.206;2022-07-03T14:07:22;100001.45;;;23.88;45.44
34103;BME280;20381;54.498;18.206;2022-07-03T14:09:49;99999.38;;;23.78;45.68
34103;BME280;20381;54.498;18.206;2022-07-03T14:14:14;99995.07;;;23.81;46.05
34103;BME280;20381;54.498;18.206;2022-07-03T14:16:41;99993.06;;;23.83;46.31
34103;BME280;20381;54.498;18.206;2022-07-03T14:19:07;99998.34;;;23.93;46.35
34103;BME280;20381;54.498;18.206;2022-07-03T14:21:34;99986.45;;;23.87;46.48